Time;durP1;ratioP1;P1;durP2;ratioP2;P2;SDS_P1;SDS_P2;PMS_P1;PMS_P2;Temp;Humidity;BMP_temperature;BMP_pressure;BME280_temperature;BME280_humidity;BME280_pressure;Samples;Min_cycle;Max_cycle;Signal;HPM_P1;HPM_P2
2023/08/19 00:01:47;;;;;;;8.20;7.60;;;;;;;23.46;100.00;100675.69;6203962;23;20030;-69
2023/08/19 00:04:15;;;;;;;8.85;8.13;;;;;;;23.26;100.00;100648.34;6204453;23;20023;-69
2023/08/19 00:06:42;;;;;;;9.93;8.93;;;;;;;23.42;100.00;100668.97;6201858;23;20079;-69
2023/08/19 00:09:09;;;;;;;9.02;8.25;;;;;;;23.44;100.00;100664.28;6184127;23;20032;-68
2023/08/19 00:11:39;;;;;;;8.27;7.63;;;;;;;22.50;100.00;100496.78;6178742;23;20031;-69
2023/08/19 00:14:07;;;;;;;9.23;8.43;;;;;;;23.43;100.00;100645.69;6199512;23;20024;-69
2023/08/19 00:16:34;;;;;;;10.80;8.10;;;;;;;23.40;100.00;100641.53;6170579;23;20538;-69
2023/08/19 00:19:01;;;;;;;9.45;8.52;;;;;;;21.90;99.80;100393.47;6200126;23;20058;-69
2023/08/19 00:21:27;;;;;;;9.38;7.95;;;;;;;23.30;99.81;100632.81;6176774;23;20568;-69
2023/08/19 00:23:56;;;;;;;9.30;8.50;;;;;;;23.11;98.93;100585.72;6176522;23;20583;-69
2023/08/19 00:26:25;;;;;;;10.55;7.90;;;;;;;23.22;99.55;100611.38;6176583;23;20016;-69
2023/08/19 00:28:51;;;;;;;9.05;8.25;;;;;;;23.28;99.53;100626.78;6201185;23;20095;-69
2023/08/19 00:31:18;;;;;;;9.15;8.25;;;;;;;22.95;99.60;100591.03;6203154;23;20565;-69
2023/08/19 00:33:44;;;;;;;9.82;8.13;;;;;;;21.97;99.30;100425.69;6203415;23;20046;-69
2023/08/19 00:36:10;;;;;;;8.43;7.75;;;;;;;23.15;99.69;100619.19;6153135;23;20076;-69
2023/08/19 00:38:37;;;;;;;8.52;7.82;;;;;;;22.97;99.17;100605.06;6205072;23;20023;-69
2023/08/19 00:41:03;;;;;;;8.82;8.10;;;;;;;23.09;99.23;100623.41;6148045;23;20027;-69
2023/08/19 00:43:31;;;;;;;8.70;7.90;;;;;;;22.07;99.14;100462.00;6204999;23;20084;-69
2023/08/19 00:45:58;;;;;;;8.40;7.80;;;;;;;22.48;99.12;100529.03;6198184;23;20044;-69
2023/08/19 00:48:25;;;;;;;9.00;8.07;;;;;;;22.87;98.96;100595.38;6205909;23;20031;-69
2023/08/19 00:50:52;;;;;;;9.15;8.32;;;;;;;22.05;99.35;100485.38;6168846;23;20035;-69
2023/08/19 00:53:18;;;;;;;8.85;8.05;;;;;;;22.86;99.59;100624.97;6203746;23;20460;-69
2023/08/19 00:55:44;;;;;;;9.07;8.32;;;;;;;22.15;100.00;100517.34;6203485;23;20023;-69
2023/08/19 00:58:12;;;;;;;8.80;8.00;;;;;;;21.84;100.00;100482.25;6175044;23;20099;-69
2023/08/19 01:00:39;;;;;;;12.77;8.50;;;;;;;22.48;100.00;100595.88;6202353;23;20092;-69
2023/08/19 01:03:06;;;;;;;8.75;8.05;;;;;;;22.64;100.00;100627.22;6204851;23;20068;-68
2023/08/19 01:06:12;;;;;;;8.38;7.57;;;;;;;22.59;100.00;100626.88;6202584;23;20028;-69
2023/08/19 01:08:55;;;;;;;8.82;8.02;;;;;;;22.48;100.00;100616.44;6142079;23;20028;-70
2023/08/19 01:11:42;;;;;;;8.68;7.88;;;;;;;22.52;100.00;100631.16;6200862;23;20016;-69
2023/08/19 01:14:30;;;;;;;8.80;8.10;;;;;;;22.42;100.00;100633.97;6200503;23;20072;-69
2023/08/19 01:17:00;;;;;;;8.43;7.80;;;;;;;22.34;100.00;100615.19;6201417;23;20031;-69
2023/08/19 01:19:31;;;;;;;11.82;7.85;;;;;;;21.49;100.00;100492.91;6198993;23;20379;-69
2023/08/19 01:22:02;;;;;;;8.53;7.77;;;;;;;21.42;100.00;100510.50;6169853;23;20031;-69
2023/08/19 01:24:37;;;;;;;8.13;7.55;;;;;;;21.64;100.00;100533.22;6197733;23;20817;-69
2023/08/19 01:27:05;;;;;;;8.82;8.00;;;;;;;22.05;100.00;100597.63;6200121;23;20012;-69
2023/08/19 01:29:32;;;;;;;8.77;7.75;;;;;;;21.97;100.00;100586.03;6172399;23;20551;-69
2023/08/19 01:31:59;;;;;;;9.07;8.18;;;;;;;22.17;100.00;100650.81;6200304;23;20108;-69
2023/08/19 01:34:26;;;;;;;8.75;8.00;;;;;;;21.82;100.00;100586.59;6199790;23;20614;-69
2023/08/19 01:37:01;;;;;;;8.68;7.90;;;;;;;22.10;100.00;100645.25;6200073;23;20114;-69
2023/08/19 01:39:29;;;;;;;9.00;8.10;;;;;;;22.07;100.00;100645.56;6175756;23;20051;-69
2023/08/19 01:41:56;;;;;;;8.48;7.85;;;;;;;21.91;100.00;100628.44;6197145;23;20062;-69
2023/08/19 01:44:24;;;;;;;8.52;7.80;;;;;;;22.00;100.00;100648.03;6201271;23;20026;-69
2023/08/19 01:46:50;;;;;;;8.70;7.95;;;;;;;21.75;100.00;100603.41;6201808;23;20571;-68
2023/08/19 01:49:17;;;;;;;8.50;7.80;;;;;;;21.70;100.00;100610.03;6170965;23;20054;-68
2023/08/19 01:51:43;;;;;;;8.77;7.75;;;;;;;21.04;100.00;100533.84;6203996;23;20062;-68
2023/08/19 01:54:10;;;;;;;8.80;7.95;;;;;;;21.90;100.00;100655.28;6169785;23;20047;-68
2023/08/19 01:56:36;;;;;;;9.18;8.25;;;;;;;21.89;100.00;100646.44;6201604;23;20091;-68
2023/08/19 01:59:03;;;;;;;8.98;8.02;;;;;;;21.85;100.00;100642.41;6199041;23;20095;-68
2023/08/19 02:01:30;;;;;;;8.50;7.80;;;;;;;21.82;100.00;100640.03;6176044;23;20899;-68
2023/08/19 02:03:56;;;;;;;8.30;7.60;;;;;;;21.90;100.00;100653.44;6195056;23;20037;-69
2023/08/19 02:06:22;;;;;;;7.53;7.03;;;;;;;20.81;100.00;100480.13;6178345;23;20008;-68
2023/08/19 02:08:49;;;;;;;8.57;7.65;;;;;;;21.75;100.00;100641.66;6200341;23;20016;-69
2023/08/19 02:11:19;;;;;;;8.00;7.50;;;;;;;21.70;100.00;100636.75;6172689;23;20226;-68
2023/08/19 02:13:46;;;;;;;8.52;7.70;;;;;;;20.88;100.00;100496.34;6203693;23;21420;-68
2023/08/19 02:16:12;;;;;;;9.65;7.40;;;;;;;21.87;100.00;100642.22;6196652;23;20087;-68
2023/08/19 02:18:39;;;;;;;8.35;7.18;;;;;;;20.82;100.00;100462.28;6206027;23;20080;-68
2023/08/19 02:21:05;;;;;;;8.35;7.75;;;;;;;21.70;100.00;100609.22;6198096;23;20028;-68
2023/08/19 02:23:31;;;;;;;7.47;6.97;;;;;;;21.41;100.00;100564.91;6204485;23;20055;-69
2023/08/19 02:25:58;;;;;;;8.77;7.97;;;;;;;21.83;100.00;100630.19;6201747;23;20020;-69
2023/08/19 02:28:24;;;;;;;8.07;7.38;;;;;;;21.85;100.00;100631.72;6197403;23;20091;-69
2023/08/19 02:30:51;;;;;;;8.48;7.68;;;;;;;21.59;100.00;100596.09;6172428;23;20024;-68
2023/08/19 02:33:17;;;;;;;7.68;7.07;;;;;;;21.09;100.00;100474.72;6199349;23;20036;-69
2023/08/19 02:35:49;;;;;;;8.23;7.63;;;;;;;21.96;100.00;100609.25;6204064;23;20027;-68
2023/08/19 02:38:15;;;;;;;8.27;7.55;;;;;;;20.84;100.00;100412.28;6201273;23;20012;-69
2023/08/19 02:40:48;;;;;;;8.30;7.60;;;;;;;21.65;100.00;100545.59;6203858;23;20044;-69
2023/08/19 02:43:14;;;;;;;7.75;7.20;;;;;;;22.05;100.00;100589.63;6199843;23;20028;-68
2023/08/19 02:45:41;;;;;;;7.45;6.95;;;;;;;21.97;99.47;100570.84;6207884;23;20131;-68
2023/08/19 02:48:07;;;;;;;9.05;8.10;;;;;;;21.17;99.77;100432.09;6205381;23;20589;-68
2023/08/19 02:50:34;;;;;;;7.32;6.72;;;;;;;22.04;99.65;100565.72;6203277;23;20322;-68
2023/08/19 02:53:01;;;;;;;9.75;7.60;;;;;;;21.69;98.19;100498.03;6200576;23;21064;-68
2023/08/19 02:55:27;;;;;;;7.75;7.15;;;;;;;22.09;98.34;100566.91;6173815;23;20047;-69
2023/08/19 02:57:54;;;;;;;7.35;6.85;;;;;;;22.13;98.29;100563.91;6206000;23;20016;-68
2023/08/19 03:00:20;;;;;;;8.10;7.30;;;;;;;22.09;97.93;100550.88;6159903;23;20017;-68
2023/08/19 03:02:47;;;;;;;7.82;7.25;;;;;;;22.08;98.46;100546.50;6203352;23;20752;-68
2023/08/19 03:05:14;;;;;;;8.32;7.63;;;;;;;22.08;98.55;100553.69;6174116;23;20024;-68
2023/08/19 03:07:40;;;;;;;7.85;6.90;;;;;;;;;;6200145;23;20153;-69
2023/08/19 03:10:07;;;;;;;8.07;7.47;;;;;;;22.01;99.05;100549.97;6175079;23;20034;-68
2023/08/19 03:12:33;;;;;;;7.90;7.10;;;;;;;22.00;98.79;100561.69;6175552;23;20167;-69
2023/08/19 03:15:00;;;;;;;7.72;7.18;;;;;;;21.88;99.42;100542.41;6174111;23;20049;-68
2023/08/19 03:17:26;;;;;;;7.70;7.07;;;;;;;21.74;98.92;100525.09;6197061;23;20039;-68
2023/08/19 03:19:53;;;;;;;7.75;7.15;;;;;;;21.49;98.32;100495.56;6204423;23;20036;-68
2023/08/19 03:22:19;;;;;;;7.97;7.28;;;;;;;22.00;99.05;100564.34;6179524;23;20095;-68
2023/08/19 03:24:46;;;;;;;7.75;7.15;;;;;;;21.74;98.33;100516.25;6173267;23;20072;-68
2023/08/19 03:27:12;;;;;;;7.75;7.22;;;;;;;21.84;98.51;100520.50;6198432;23;20100;-68
2023/08/19 03:29:39;;;;;;;7.18;6.75;;;;;;;21.84;98.79;100517.00;6176290;23;20044;-68
2023/08/19 03:32:07;;;;;;;7.95;7.35;;;;;;;21.84;99.18;100527.69;6177532;23;20740;-68
2023/08/19 03:34:34;;;;;;;8.57;7.88;;;;;;;21.99;98.29;100541.28;6201464;23;20053;-69
2023/08/19 03:37:00;;;;;;;8.35;7.53;;;;;;;21.77;99.01;100508.78;6202193;23;20090;-68
2023/08/19 03:39:29;;;;;;;7.68;7.18;;;;;;;21.90;98.70;100533.22;6203348;23;20024;-68
2023/08/19 03:41:56;;;;;;;10.25;7.10;;;;;;;21.68;98.43;100493.69;6177512;23;20131;-68
2023/08/19 03:44:22;;;;;;;7.55;6.95;;;;;;;21.91;98.61;100523.41;6197449;23;20091;-69
2023/08/19 03:46:48;;;;;;;7.70;7.00;;;;;;;21.99;98.33;100538.59;6203454;23;20043;-68
2023/08/19 03:49:15;;;;;;;7.80;7.20;;;;;;;21.88;98.98;100529.88;6203546;23;20525;-68
2023/08/19 03:51:41;;;;;;;7.78;7.13;;;;;;;21.99;98.66;100546.63;6202692;23;20024;-68
2023/08/19 03:54:08;;;;;;;7.93;7.13;;;;;;;21.97;97.84;100537.94;6199207;23;20176;-68
2023/08/19 03:56:34;;;;;;;8.02;7.28;;;;;;;21.03;97.29;100376.63;6207094;23;20208;-68
2023/08/19 03:59:00;;;;;;;9.40;7.07;;;;;;;21.92;97.59;100519.72;6200544;23;20016;-68
2023/08/19 04:01:27;;;;;;;8.20;6.95;;;;;;;21.73;97.21;100494.06;6176223;23;20052;-68
2023/08/19 04:03:53;;;;;;;7.35;6.88;;;;;;;;;;6203447;23;20087;-68
2023/08/19 04:06:20;;;;;;;7.43;6.93;;;;;;;21.89;96.34;100504.00;6206127;23;20040;-69
2023/08/19 04:08:46;;;;;;;7.32;6.78;;;;;;;21.89;96.47;100510.19;6204755;23;20075;-69
2023/08/19 04:11:13;;;;;;;7.40;6.90;;;;;;;21.96;96.39;100522.91;6203852;23;20300;-69
2023/08/19 04:13:39;;;;;;;7.50;7.00;;;;;;;21.00;96.01;100363.56;6203998;23;20071;-68
2023/08/19 04:16:06;;;;;;;7.97;7.18;;;;;;;21.90;95.69;100511.84;6200359;23;20054;-68
2023/08/19 04:18:33;;;;;;;7.90;7.30;;;;;;;22.04;95.75;100528.28;6201862;23;20088;-68
2023/08/19 04:21:08;;;;;;;7.30;6.80;;;;;;;22.08;95.13;100516.28;6178712;23;20075;-69
2023/08/19 04:23:35;;;;;;;8.00;7.30;;;;;;;21.98;94.02;100502.22;6205520;23;20512;-69
2023/08/19 04:26:02;;;;;;;8.35;7.55;;;;;;;20.96;94.33;100335.53;6202529;23;20028;-69
2023/08/19 04:28:29;;;;;;;7.53;7.03;;;;;;;21.03;93.89;100340.09;6199602;23;20013;-69
2023/08/19 04:31:06;;;;;;;8.18;6.88;;;;;;;21.94;93.44;100484.81;6178508;23;20103;-70
2023/08/19 04:33:34;;;;;;;7.72;7.13;;;;;;;21.91;93.54;100489.50;6172973;23;21197;-70
2023/08/19 04:36:04;;;;;;;7.43;6.82;;;;;;;22.07;93.59;100507.44;6198177;23;20031;-70
2023/08/19 04:38:31;;;;;;;7.80;7.15;;;;;;;20.93;93.31;100339.34;6206157;23;20123;-70
2023/08/19 04:41:01;;;;;;;8.02;7.30;;;;;;;22.07;94.06;100502.09;6203401;23;20023;-69
2023/08/19 04:43:28;;;;;;;7.60;7.00;;;;;;;21.37;93.47;100381.13;6199424;23;20564;-69
2023/08/19 04:45:54;;;;;;;9.70;7.00;;;;;;;21.45;92.90;100390.09;6205449;23;20032;-70
2023/08/19 04:48:21;;;;;;;7.88;7.38;;;;;;;22.09;92.14;100484.06;6205753;23;20075;-70
2023/08/19 04:50:49;;;;;;;7.82;7.13;;;;;;;22.02;92.22;100487.53;6204899;23;20688;-72
2023/08/19 04:53:15;;;;;;;7.72;7.13;;;;;;;22.13;91.55;100484.59;6199566;23;20039;-69
2023/08/19 04:55:42;;;;;;;7.63;7.13;;;;;;;22.25;91.68;100493.16;6203564;23;20050;-69
2023/08/19 04:58:08;;;;;;;7.50;7.00;;;;;;;21.24;90.93;100312.19;6199959;23;20503;-70
2023/08/19 05:00:36;;;;;;;12.90;7.10;;;;;;;22.19;91.39;100472.38;6205257;23;20032;-69
2023/08/19 05:03:03;;;;;;;7.88;7.20;;;;;;;22.14;91.41;100467.53;6173908;23;20046;-68
2023/08/19 05:05:30;;;;;;;7.53;7.00;;;;;;;22.44;91.48;100502.78;6200443;23;20045;-69
2023/08/19 05:07:56;;;;;;;7.50;6.80;;;;;;;22.40;90.38;100485.38;6176054;23;20743;-71
2023/08/19 05:10:23;;;;;;;7.85;7.07;;;;;;;21.88;90.60;100398.13;6200212;23;20049;-68
2023/08/19 05:12:49;;;;;;;7.88;7.18;;;;;;;22.14;90.76;100431.97;6203515;23;20016;-69
2023/08/19 05:15:15;;;;;;;7.30;6.70;;;;;;;21.54;90.31;100332.22;6200331;23;20679;-68
2023/08/19 05:17:42;;;;;;;7.60;6.90;;;;;;;22.56;90.48;100493.44;6203034;23;20091;-69
2023/08/19 05:20:09;;;;;;;7.85;7.25;;;;;;;22.78;88.87;100496.50;6204030;23;20106;-69
2023/08/19 05:22:35;;;;;;;7.47;6.97;;;;;;;21.87;87.83;100302.94;6203074;23;20647;-68
2023/08/19 05:25:02;;;;;;;7.38;6.72;;;;;;;23.11;86.71;100484.00;6204302;23;20099;-69
2023/08/19 05:27:29;;;;;;;7.60;7.05;;;;;;;22.98;84.87;100398.84;6200749;23;22287;-69
2023/08/19 05:29:56;;;;;;;7.45;6.88;;;;;;;23.56;82.78;100425.56;6179555;23;20031;-68
2023/08/19 05:32:23;;;;;;;7.85;7.15;;;;;;;23.35;81.39;100373.38;6196546;23;20079;-68
2023/08/19 05:34:49;;;;;;;7.25;6.75;;;;;;;23.40;82.39;100394.31;6203738;23;20032;-68
2023/08/19 05:37:16;;;;;;;10.40;6.97;;;;;;;23.62;81.77;100425.72;6202673;23;20660;-68
2023/08/19 05:39:42;;;;;;;7.40;6.90;;;;;;;22.84;81.95;100303.19;6204401;23;20124;-68
2023/08/19 05:42:12;;;;;;;7.57;6.97;;;;;;;23.44;82.21;100415.19;6203940;23;20053;-68
2023/08/19 05:44:38;;;;;;;7.53;6.95;;;;;;;23.37;82.71;100424.91;6195795;23;20019;-69
2023/08/19 05:47:05;;;;;;;7.55;7.00;;;;;;;23.22;83.12;100416.75;6177498;23;20643;-68
2023/08/19 05:49:31;;;;;;;7.57;6.88;;;;;;;23.20;83.40;100425.97;6172772;23;22381;-68
2023/08/19 05:51:58;;;;;;;7.40;6.82;;;;;;;23.33;83.94;100460.25;6200492;23;20026;-68
2023/08/19 05:54:24;;;;;;;7.68;7.07;;;;;;;22.40;83.74;100319.59;6198144;23;20012;-69
2023/08/19 05:56:50;;;;;;;6.95;6.35;;;;;;;23.21;84.00;100441.00;6204240;23;20040;-69
2023/08/19 05:59:17;;;;;;;7.43;6.93;;;;;;;23.20;84.17;100442.84;6202089;23;20027;-69
2023/08/19 06:01:43;;;;;;;7.20;6.50;;;;;;;23.38;83.41;100461.41;6200299;23;20088;-68
2023/08/19 06:04:10;;;;;;;7.25;6.75;;;;;;;23.12;83.76;100426.81;6199722;23;20048;-69
2023/08/19 06:06:36;;;;;;;7.32;6.82;;;;;;;23.21;84.28;100454.41;6175272;23;20020;-69
2023/08/19 06:09:03;;;;;;;7.22;6.70;;;;;;;23.30;84.85;100466.78;6173851;23;20624;-69
2023/08/19 06:11:30;;;;;;;7.30;6.70;;;;;;;22.85;84.52;100387.78;6177496;23;20014;-69
2023/08/19 06:13:58;;;;;;;7.80;7.20;;;;;;;23.30;85.16;100489.03;6203690;23;20028;-69
2023/08/19 06:16:24;;;;;;;7.70;7.10;;;;;;;23.45;84.33;100473.13;6198096;23;20113;-69
2023/08/19 06:18:51;;;;;;;7.28;6.78;;;;;;;23.49;83.95;100469.09;6204689;23;20650;-69
2023/08/19 06:21:20;;;;;;;7.25;6.75;;;;;;;22.94;83.49;100373.41;6173862;23;20095;-69
2023/08/19 06:23:46;;;;;;;7.22;6.57;;;;;;;22.97;83.08;100377.59;6200792;23;20092;-69
2023/08/19 06:26:13;;;;;;;7.43;6.80;;;;;;;23.71;83.55;100488.13;6205401;23;20028;-68
2023/08/19 06:28:39;;;;;;;7.47;6.70;;;;;;;23.68;82.82;100467.06;6207607;23;20055;-69
2023/08/19 06:31:06;;;;;;;7.20;6.60;;;;;;;23.80;82.17;100476.44;6182868;23;20039;-69
2023/08/19 06:33:33;;;;;;;8.60;6.88;;;;;;;23.95;81.69;100489.09;6203879;23;20092;-69
2023/08/19 06:36:00;;;;;;;7.30;6.60;;;;;;;23.95;81.59;100483.75;6181570;23;20021;-69
2023/08/19 06:38:29;;;;;;;7.75;6.95;;;;;;;23.94;80.94;100477.56;6181045;23;20090;-69
2023/08/19 06:41:04;;;;;;;7.50;6.97;;;;;;;23.94;81.49;100477.56;6206011;23;20052;-68
2023/08/19 06:43:32;;;;;;;7.30;6.80;;;;;;;23.11;81.42;100376.94;6208488;23;20083;-69
2023/08/19 06:46:00;;;;;;;7.10;6.55;;;;;;;23.15;80.96;100343.47;6201963;23;20442;-69
2023/08/19 06:48:28;;;;;;;7.75;6.53;;;;;;;24.04;79.91;100469.31;6205471;23;20043;-69
2023/08/19 06:50:55;;;;;;;7.30;6.60;;;;;;;24.14;79.76;100479.84;6206276;23;20039;-69
2023/08/19 06:53:21;;;;;;;8.48;7.72;;;;;;;24.21;79.68;100489.66;6203722;23;20036;-69
2023/08/19 06:56:20;;;;;;;7.50;6.90;;;;;;;24.26;79.47;100479.28;6208457;23;20024;-69
2023/08/19 06:59:01;;;;;;;7.90;7.20;;;;;;;24.42;79.60;100485.56;6206742;23;20067;-69
2023/08/19 07:01:30;;;;;;;7.40;6.90;;;;;;;23.77;77.22;100329.38;6208107;23;20080;-69
2023/08/19 07:03:57;;;;;;;7.20;6.50;;;;;;;24.39;76.94;100410.81;6203610;23;20024;-69
2023/08/19 07:06:28;;;;;;;7.05;6.55;;;;;;;23.68;77.28;100308.97;6205766;23;20016;-69
2023/08/19 07:08:57;;;;;;;7.50;6.90;;;;;;;24.64;76.72;100447.22;6207474;23;20374;-71
2023/08/19 07:11:23;;;;;;;7.90;7.28;;;;;;;24.63;77.11;100445.53;6171263;23;20028;-69
2023/08/19 07:13:50;;;;;;;6.75;6.35;;;;;;;24.77;75.96;100437.75;6204936;23;20071;-69
2023/08/19 07:16:20;;;;;;;7.38;6.88;;;;;;;24.81;76.15;100455.16;6205533;23;20008;-70
2023/08/19 07:18:48;;;;;;;7.03;6.53;;;;;;;24.25;76.50;100364.13;6177081;23;20020;-70
2023/08/19 07:21:15;;;;;;;7.82;7.22;;;;;;;24.62;75.96;100403.66;6202568;23;20141;-70
2023/08/19 07:23:45;;;;;;;7.57;7.03;;;;;;;25.03;74.31;100419.41;6203482;23;20037;-69
2023/08/19 07:26:12;;;;;;;7.53;6.85;;;;;;;25.01;74.77;100429.50;6203304;23;20005;-69
2023/08/19 07:28:39;;;;;;;7.82;7.18;;;;;;;24.99;75.01;100454.84;6159257;23;21547;-69
2023/08/19 07:31:09;;;;;;;7.40;6.90;;;;;;;25.03;74.08;100440.06;6202276;23;20537;-69
2023/08/19 07:33:36;;;;;;;8.00;7.22;;;;;;;25.00;75.13;100470.78;6199969;23;20031;-69
2023/08/19 07:36:03;;;;;;;7.60;7.00;;;;;;;25.21;75.42;100480.00;6204918;23;20043;-69
2023/08/19 07:38:29;;;;;;;7.88;7.05;;;;;;;25.50;74.21;100465.00;6200593;23;20024;-69
2023/08/19 07:40:56;;;;;;;7.30;6.65;;;;;;;25.65;72.92;100447.88;6204075;23;20040;-70
2023/08/19 07:43:22;;;;;;;7.53;6.93;;;;;;;25.57;72.25;100415.72;6173561;23;20044;-70
2023/08/19 07:45:49;;;;;;;7.65;6.85;;;;;;;25.53;72.71;100441.28;6172093;23;20025;-70
2023/08/19 07:48:15;;;;;;;9.05;6.97;;;;;;;25.58;72.49;100425.47;6173614;23;20028;-70
2023/08/19 07:50:42;;;;;;;7.72;7.13;;;;;;;24.75;72.38;100295.69;6177157;23;20152;-68
2023/08/19 07:53:08;;;;;;;7.53;6.93;;;;;;;24.81;72.32;100288.75;6202776;23;20036;-68
2023/08/19 07:55:34;;;;;;;7.35;6.78;;;;;;;26.03;72.06;100468.47;6206213;23;20031;-69
2023/08/19 07:58:01;;;;;;;7.72;7.13;;;;;;;26.19;71.06;100449.44;6206326;23;20407;-69
2023/08/19 08:00:27;;;;;;;7.55;7.05;;;;;;;25.38;70.36;100271.19;6202803;23;20076;-68
2023/08/19 08:02:54;;;;;;;7.10;6.50;;;;;;;26.20;69.89;100374.94;6180363;23;20040;-71
2023/08/19 08:05:20;;;;;;;7.60;7.00;;;;;;;26.29;69.41;100375.69;6206996;23;20028;-70
2023/08/19 08:07:47;;;;;;;7.40;6.70;;;;;;;26.45;68.88;100372.72;6200289;23;20614;-71
2023/08/19 08:10:13;;;;;;;6.93;6.50;;;;;;;26.04;69.09;100333.84;6202383;23;20099;-68
2023/08/19 08:12:40;;;;;;;7.18;6.65;;;;;;;26.31;68.93;100373.63;6199739;23;20086;-68
2023/08/19 08:15:08;;;;;;;7.10;6.60;;;;;;;26.40;69.35;100399.38;6202096;23;20054;-68
2023/08/19 08:17:34;;;;;;;9.35;6.95;;;;;;;26.43;69.98;100440.19;6202365;23;20023;-69
2023/08/19 08:20:01;;;;;;;7.50;7.07;;;;;;;25.64;69.08;100259.94;6202974;23;21367;-68
2023/08/19 08:22:28;;;;;;;7.00;6.60;;;;;;;25.64;69.33;100301.09;6197950;23;20016;-68
2023/08/19 08:24:55;;;;;;;6.88;6.47;;;;;;;26.45;69.66;100448.91;6201038;23;20020;-68
2023/08/19 08:27:25;;;;;;;7.72;7.22;;;;;;;26.69;68.86;100443.41;6199946;23;20012;-68
2023/08/19 08:29:51;;;;;;;7.35;6.75;;;;;;;26.06;69.11;100347.91;6198133;23;20032;-68
2023/08/19 08:32:18;;;;;;;7.47;6.95;;;;;;;26.47;68.67;100381.44;6173872;23;20486;-70
2023/08/19 08:34:44;;;;;;;7.32;6.82;;;;;;;27.12;68.12;100454.13;6202805;23;20023;-68
2023/08/19 08:37:11;;;;;;;7.53;6.80;;;;;;;26.59;67.06;100338.72;6202592;23;20080;-69
2023/08/19 08:39:37;;;;;;;7.47;6.97;;;;;;;27.33;68.45;100489.16;6202279;23;20032;-68
2023/08/19 08:42:04;;;;;;;8.52;7.10;;;;;;;27.48;67.78;100472.06;6174083;23;20020;-68
2023/08/19 08:44:32;;;;;;;7.63;7.13;;;;;;;27.71;66.81;100475.31;6205335;23;20082;-69
2023/08/19 08:47:00;;;;;;;7.32;6.72;;;;;;;27.95;65.36;100462.44;6199522;23;20497;-68
2023/08/19 08:49:27;;;;;;;7.75;7.15;;;;;;;28.04;65.45;100458.50;6201007;23;20366;-68
2023/08/19 08:51:55;;;;;;;10.88;7.07;;;;;;;27.99;64.09;100412.44;6174244;23;20092;-68
2023/08/19 08:54:22;;;;;;;7.40;6.90;;;;;;;27.23;64.98;100317.06;6201745;23;20065;-69
2023/08/19 08:56:49;;;;;;;7.03;6.57;;;;;;;28.27;64.80;100451.97;6202891;23;20087;-69
2023/08/19 08:59:16;;;;;;;8.52;7.28;;;;;;;28.36;62.95;100410.25;6199361;23;20633;-69
2023/08/19 09:01:45;;;;;;;6.95;6.45;;;;;;;28.31;63.52;100428.94;6171374;23;20028;-69
2023/08/19 09:04:15;;;;;;;8.07;7.38;;;;;;;27.56;62.68;100269.72;6174183;23;20580;-69
2023/08/19 09:06:43;;;;;;;7.72;7.07;;;;;;;28.48;63.14;100419.41;6173890;23;20024;-69
2023/08/19 09:09:12;;;;;;;7.78;7.20;;;;;;;28.44;62.38;100428.97;6200923;23;20016;-69
2023/08/19 09:11:43;;;;;;;8.13;7.38;;;;;;;28.79;62.59;100458.56;6200407;23;20545;-69
2023/08/19 09:14:26;;;;;;;7.43;6.93;;;;;;;29.19;61.29;100435.13;6201788;23;20033;-69
2023/08/19 09:16:52;;;;;;;7.80;7.20;;;;;;;29.11;60.53;100399.34;6200658;23;20024;-69
2023/08/19 09:19:19;;;;;;;7.45;6.95;;;;;;;29.13;59.81;100387.31;6201577;23;20026;-69
2023/08/19 09:21:45;;;;;;;7.70;7.13;;;;;;;29.31;59.18;100394.78;6201199;23;20024;-69
2023/08/19 09:24:16;;;;;;;7.90;7.30;;;;;;;28.52;60.30;100318.09;6198750;23;20055;-70
2023/08/19 09:26:45;;;;;;;7.43;6.90;;;;;;;29.29;59.75;100398.72;6176403;23;20034;-69
2023/08/19 09:29:12;;;;;;;9.27;7.03;;;;;;;29.18;60.30;100433.44;6195887;23;20455;-69
2023/08/19 09:31:39;;;;;;;7.45;6.95;;;;;;;28.92;60.08;100355.91;6199082;23;20505;-69
2023/08/19 09:34:06;;;;;;;8.35;7.50;;;;;;;28.58;59.56;100259.75;6200788;23;20403;-69
2023/08/19 09:36:33;;;;;;;8.02;7.00;;;;;;;30.03;58.93;100494.91;6200571;23;20016;-69
2023/08/19 09:38:59;;;;;;;7.90;7.20;;;;;;;29.24;59.27;100329.06;6198811;23;20731;-69
2023/08/19 09:41:27;;;;;;;8.18;7.43;;;;;;;29.98;58.38;100449.53;6203764;23;20590;-69
2023/08/19 09:43:54;;;;;;;7.80;7.25;;;;;;;30.00;58.13;100469.06;6205147;23;20020;-69
2023/08/19 09:46:30;;;;;;;7.65;7.07;;;;;;;29.97;59.14;100482.19;6173829;23;20027;-69
2023/08/19 09:48:57;;;;;;;8.00;7.28;;;;;;;29.75;59.05;100471.66;6198133;23;20092;-69
2023/08/19 09:51:25;;;;;;;7.60;7.10;;;;;;;29.95;59.65;100500.53;6173168;23;20032;-69
2023/08/19 09:53:52;;;;;;;8.00;7.40;;;;;;;30.31;58.66;100513.56;6178822;23;20040;-69
2023/08/19 09:56:24;;;;;;;7.85;7.28;;;;;;;30.44;58.59;100517.25;6172266;23;20021;-69
2023/08/19 09:58:52;;;;;;;7.55;7.05;;;;;;;30.87;56.69;100494.91;6203695;23;20089;-69
2023/08/19 10:01:25;;;;;;;7.90;7.10;;;;;;;31.35;55.45;100502.47;6207150;23;20085;-69
2023/08/19 10:03:51;;;;;;;8.05;7.47;;;;;;;31.26;54.92;100450.44;6188307;23;21320;-69
2023/08/19 10:06:26;;;;;;;8.00;7.40;;;;;;;29.77;56.41;100325.41;6204666;23;20472;-69
2023/08/19 10:09:07;;;;;;;7.95;7.25;;;;;;;30.48;57.59;100483.28;6203133;23;20023;-69
2023/08/19 10:11:37;;;;;;;7.60;7.00;;;;;;;31.13;55.37;100492.06;6172614;23;20405;-69
2023/08/19 10:14:04;;;;;;;8.35;7.75;;;;;;;30.54;55.28;100369.47;6201661;23;20020;-70
2023/08/19 10:16:35;;;;;;;8.30;7.70;;;;;;;31.34;54.88;100474.53;6176085;23;20465;-69
2023/08/19 10:19:04;;;;;;;7.40;6.85;;;;;;;31.65;55.25;100534.38;6205204;23;20081;-69
2023/08/19 10:21:32;;;;;;;8.02;7.45;;;;;;;32.12;54.26;100541.03;6202375;23;20027;-70
2023/08/19 10:23:59;;;;;;;7.82;7.22;;;;;;;32.30;53.21;100534.75;6198669;23;20036;-70
2023/08/19 10:26:26;;;;;;;8.38;7.78;;;;;;;31.76;52.72;100343.72;6176839;23;20190;-68
2023/08/19 10:29:07;;;;;;;7.88;7.25;;;;;;;32.65;52.92;100512.38;6177003;23;20609;-69
2023/08/19 10:31:35;;;;;;;7.78;7.13;;;;;;;31.73;52.26;100336.88;6202244;23;22187;-68
2023/08/19 10:34:25;;;;;;;8.60;7.80;;;;;;;32.83;52.54;100510.66;6200427;23;20032;-68
2023/08/19 10:37:28;;;;;;;8.10;7.50;;;;;;;32.67;51.65;100474.91;6173195;23;20046;-69
2023/08/19 10:40:07;;;;;;;8.60;7.80;;;;;;;32.27;51.52;100399.41;6099843;23;20027;-68
2023/08/19 10:42:33;;;;;;;8.35;7.65;;;;;;;32.77;51.55;100485.22;6205543;22;20018;-71
2023/08/19 10:45:00;;;;;;;8.57;7.88;;;;;;;32.65;52.23;100519.69;6202554;23;20386;-70
2023/08/19 10:47:27;;;;;;;7.93;7.20;;;;;;;32.28;52.35;100462.72;6205457;23;20071;-70
2023/08/19 10:50:04;;;;;;;8.30;7.57;;;;;;;31.82;52.83;100445.91;6203450;23;20493;-70
2023/08/19 10:52:31;;;;;;;8.40;7.70;;;;;;;31.58;53.94;100424.06;6199943;23;20075;-70
2023/08/19 10:55:01;;;;;;;9.32;8.43;;;;;;;31.92;54.22;100526.81;6174125;23;20036;-68
2023/08/19 10:57:30;;;;;;;9.38;8.48;;;;;;;31.67;54.58;100503.25;6206869;23;20027;-69
2023/08/19 10:59:58;;;;;;;8.65;7.93;;;;;;;31.88;53.98;100523.72;6174789;23;20024;-69
2023/08/19 11:02:26;;;;;;;8.32;7.60;;;;;;;32.07;54.02;100553.59;6198168;23;20008;-69
2023/08/19 11:04:54;;;;;;;8.40;7.80;;;;;;;31.88;54.23;100509.31;6203533;23;20505;-69
2023/08/19 11:07:21;;;;;;;8.45;7.85;;;;;;;31.99;53.87;100541.97;6199797;23;20106;-68
2023/08/19 11:09:49;;;;;;;8.68;7.85;;;;;;;31.90;54.94;100550.63;6172081;23;20033;-68
2023/08/19 11:12:20;;;;;;;8.40;7.55;;;;;;;32.09;54.70;100574.03;6205764;23;20083;-69
2023/08/19 11:14:48;;;;;;;8.45;7.65;;;;;;;32.48;54.70;100642.56;6206835;23;20099;-68
2023/08/19 11:17:15;;;;;;;8.65;7.90;;;;;;;32.09;53.84;100508.06;6200142;23;20770;-68
2023/08/19 11:19:42;;;;;;;8.60;7.80;;;;;;;32.54;52.78;100548.47;6174126;23;20048;-68
2023/08/19 11:22:14;;;;;;;8.75;7.82;;;;;;;31.72;53.58;100462.72;6198385;23;20103;-68
2023/08/19 11:24:40;;;;;;;8.27;7.67;;;;;;;32.15;52.88;100499.81;6204235;23;20024;-68
2023/08/19 11:27:10;;;;;;;8.95;8.15;;;;;;;31.45;53.31;100432.31;6195313;23;20179;-70
2023/08/19 11:29:38;;;;;;;8.38;7.68;;;;;;;32.09;54.02;100552.31;6205155;23;20090;-71